Time;durP1;ratioP1;P1;durP2;ratioP2;P2;SDS_P1;SDS_P2;PMS_P1;PMS_P2;Temp;Humidity;BMP_temperature;BMP_pressure;BME280_temperature;BME280_humidity;BME280_pressure;Samples;Min_cycle;Max_cycle;Signal;HPM_P1;HPM_P2
2023/04/07 00:00:55;;;;;;;1.98;1.80;;;;;;;5.27;61.74;99337.31;4413096;32;33707;-87
2023/04/07 00:03:26;;;;;;;1.62;1.52;;;;;;;5.18;61.75;99332.16;4414564;32;33055;-85
2023/04/07 00:05:55;;;;;;;1.65;1.55;;;;;;;5.26;61.56;99331.28;4420994;32;33777;-88
2023/04/07 00:08:23;;;;;;;2.15;1.65;;;;;;;5.37;61.10;99326.19;4412420;32;33891;-83
2023/04/07 00:10:52;;;;;;;1.80;1.70;;;;;;;5.32;61.39;99333.03;4414382;32;33243;-85
2023/04/07 00:13:23;;;;;;;1.60;1.50;;;;;;;5.31;61.31;99333.88;4414331;32;33086;-86
2023/04/07 00:15:52;;;;;;;1.87;1.77;;;;;;;5.34;61.09;99333.91;4420543;32;35203;-86
2023/04/07 00:18:21;;;;;;;1.65;1.55;;;;;;;4.99;62.16;99332.06;4412978;32;33481;-83
2023/04/07 00:20:49;;;;;;;2.35;1.87;;;;;;;5.32;60.98;99325.31;4414332;32;33659;-85
2023/04/07 00:23:18;;;;;;;2.35;1.90;;;;;;;5.43;60.93;99333.91;4406646;32;32735;-84
2023/04/07 00:25:48;;;;;;;2.12;1.92;;;;;;;5.48;60.71;99326.19;4416776;32;33550;-85
2023/04/07 00:28:17;;;;;;;2.08;1.98;;;;;;;5.64;58.98;99333.09;4410915;32;34613;-86
2023/04/07 00:30:47;;;;;;;1.70;1.60;;;;;;;5.40;60.32;99327.91;4404883;32;34086;-84
2023/04/07 00:33:16;;;;;;;1.90;1.80;;;;;;;5.49;60.29;99326.22;4410006;32;33723;-85
2023/04/07 00:35:45;;;;;;;1.85;1.75;;;;;;;5.47;60.52;99320.19;4412980;32;35260;-84
2023/04/07 00:38:14;;;;;;;2.72;1.87;;;;;;;5.78;58.96;99317.66;4412553;32;33715;-86
2023/04/07 00:40:43;;;;;;;2.97;1.83;;;;;;;5.61;59.41;99320.22;4415426;32;33520;-83
2023/04/07 00:43:11;;;;;;;2.15;1.95;;;;;;;5.85;58.34;99319.38;4414601;32;33285;-84
2023/04/07 00:45:40;;;;;;;1.90;1.75;;;;;;;5.64;59.04;99316.78;4414405;32;34499;-84
2023/04/07 00:48:11;;;;;;;2.22;2.03;;;;;;;5.78;58.14;99315.09;4420941;32;33940;-87
2023/04/07 00:50:40;;;;;;;1.93;1.77;;;;;;;5.51;58.89;99309.06;4416681;32;33684;-83
2023/04/07 00:53:09;;;;;;;1.90;1.80;;;;;;;5.37;59.63;99308.19;4414586;32;32946;-84
2023/04/07 00:55:38;;;;;;;1.50;1.40;;;;;;;5.18;60.12;99306.44;4414372;32;32913;-87
2023/04/07 00:58:06;;;;;;;1.67;1.58;;;;;;;5.26;59.85;99305.56;4414197;32;32180;-86
2023/04/07 01:00:38;;;;;;;1.55;1.45;;;;;;;5.35;59.22;99304.75;4420500;32;34072;-87
2023/04/07 01:03:13;;;;;;;2.05;1.65;;;;;;;5.44;58.59;99304.78;4415325;32;33716;-84
2023/04/07 01:05:49;;;;;;;1.48;1.37;;;;;;;5.20;59.34;99302.16;4415346;32;34419;-83
2023/04/07 01:08:23;;;;;;;1.95;1.85;;;;;;;5.17;59.68;99300.44;4413373;32;33302;-85
2023/04/07 01:10:56;;;;;;;2.37;2.17;;;;;;;5.26;59.43;99294.44;4418566;32;34274;-86
2023/04/07 01:13:28;;;;;;;3.00;2.37;;;;;;;5.24;59.67;99291.00;4421666;32;33490;-88
2023/04/07 01:16:01;;;;;;;1.83;1.73;;;;;;;5.24;59.55;99285.84;4413825;32;34227;-83
2023/04/07 01:18:34;;;;;;;2.55;2.05;;;;;;;5.49;58.54;99279.91;4414506;32;33700;-84
2023/04/07 01:21:06;;;;;;;2.28;1.95;;;;;;;5.62;58.26;99287.63;4411752;32;33688;-85
2023/04/07 01:23:49;;;;;;;2.15;1.73;;;;;;;5.29;58.88;99286.72;4413715;32;34005;-85
2023/04/07 01:26:20;;;;;;;6.55;1.92;;;;;;;5.41;59.20;99294.44;4418416;32;33605;-87
2023/04/07 01:29:00;;;;;;;1.62;1.52;;;;;;;5.47;58.81;99285.91;4414107;32;33684;-83
2023/04/07 01:31:30;;;;;;;2.03;1.90;;;;;;;5.44;58.58;99286.75;4410729;32;33987;-83
2023/04/07 01:34:00;;;;;;;1.70;1.60;;;;;;;5.06;59.54;99289.25;4413418;32;32674;-83
2023/04/07 01:36:30;;;;;;;2.45;1.92;;;;;;;5.04;60.19;99280.69;4418370;32;33569;-82
2023/04/07 01:39:00;;;;;;;2.17;2.03;;;;;;;4.96;60.55;99275.53;4413821;32;33901;-83
2023/04/07 01:41:29;;;;;;;2.17;2.00;;;;;;;4.90;60.33;99280.62;4414092;32;34070;-84
2023/04/07 01:43:59;;;;;;;2.60;2.40;;;;;;;4.68;61.23;99272.84;4414842;32;33574;-86
2023/04/07 01:46:27;;;;;;;1.70;1.60;;;;;;;4.67;61.29;99278.00;4414910;32;32945;-84
2023/04/07 01:48:58;;;;;;;1.62;1.52;;;;;;;4.60;61.60;99269.41;4420182;32;34439;-86
2023/04/07 01:51:29;;;;;;;2.25;2.05;;;;;;;4.74;61.34;99273.75;4414964;32;32938;-83
2023/04/07 01:53:59;;;;;;;5.00;2.33;;;;;;;4.69;61.41;99279.72;4414229;32;33983;-83
2023/04/07 01:56:27;;;;;;;2.22;2.05;;;;;;;4.60;61.57;99274.53;4415000;32;33814;-86
2023/04/07 01:58:56;;;;;;;1.70;1.60;;;;;;;4.61;61.78;99278.81;4420477;32;34087;-83
2023/04/07 02:01:26;;;;;;;1.65;1.55;;;;;;;4.49;61.86;99281.31;4413164;32;33824;-87
2023/04/07 02:04:00;;;;;;;1.70;1.60;;;;;;;4.40;62.40;99283.87;4410532;32;33143;-84
2023/04/07 02:06:34;;;;;;;2.75;2.55;;;;;;;4.36;62.68;99280.41;4410774;32;33875;-83
2023/04/07 02:09:07;;;;;;;1.98;1.85;;;;;;;4.40;62.46;99284.72;4403467;32;33666;-85
2023/04/07 02:11:37;;;;;;;1.92;1.83;;;;;;;4.34;62.99;99278.69;4415566;32;34695;-85
2023/04/07 02:14:07;;;;;;;2.60;2.33;;;;;;;4.38;62.60;99276.16;4405329;32;32981;-82
2023/04/07 02:16:37;;;;;;;2.53;2.33;;;;;;;4.36;62.67;99285.56;4411544;32;35143;-84
2023/04/07 02:19:08;;;;;;;1.62;1.52;;;;;;;4.33;63.29;99282.97;4412791;32;33913;-84
2023/04/07 02:21:37;;;;;;;2.40;2.20;;;;;;;4.60;62.36;99281.41;4412948;32;34094;-84
2023/04/07 02:24:07;;;;;;;1.87;1.77;;;;;;;4.52;62.15;99281.38;4414298;32;33414;-86
2023/04/07 02:26:36;;;;;;;2.50;1.87;;;;;;;4.78;61.78;99281.44;4413544;32;33790;-85
2023/04/07 02:29:05;;;;;;;2.10;2.00;;;;;;;4.73;61.67;99277.16;4413157;32;34177;-83
2023/04/07 02:31:34;;;;;;;2.55;2.35;;;;;;;4.65;62.00;99282.28;4411729;32;34442;-84
2023/04/07 02:34:03;;;;;;;2.08;1.87;;;;;;;4.51;62.70;99278.78;4418960;32;32886;-83
2023/04/07 02:36:34;;;;;;;1.80;1.70;;;;;;;4.32;63.36;99281.25;4412819;32;33438;-83
2023/04/07 02:39:03;;;;;;;2.15;1.95;;;;;;;4.57;63.36;99282.25;4407899;32;33184;-83
2023/04/07 02:41:32;;;;;;;1.70;1.60;;;;;;;4.58;63.27;99273.66;4410057;32;33995;-82
2023/04/07 02:44:01;;;;;;;5.70;2.50;;;;;;;4.74;62.72;99278.88;4418797;32;32924;-83
2023/04/07 02:46:29;;;;;;;1.45;1.35;;;;;;;4.68;63.08;99279.69;4413138;32;34964;-83
2023/04/07 02:48:58;;;;;;;1.83;1.55;;;;;;;4.66;63.18;99277.16;4412106;32;34398;-83
2023/04/07 02:51:27;;;;;;;2.67;2.33;;;;;;;4.53;63.95;99285.63;4413230;32;33983;-83
2023/04/07 02:53:57;;;;;;;1.80;1.70;;;;;;;4.65;63.66;99277.97;4412412;32;32614;-84
2023/04/07 02:56:26;;;;;;;1.87;1.77;;;;;;;4.71;63.43;99279.69;4418513;32;34092;-83
2023/04/07 02:58:55;;;;;;;2.50;2.30;;;;;;;4.81;63.31;99285.72;4413772;32;33603;-84
2023/04/07 03:01:24;;;;;;;1.65;1.55;;;;;;;4.65;64.02;99284.84;4414447;32;34190;-82
2023/04/07 03:03:53;;;;;;;3.08;2.80;;;;;;;4.43;65.16;99283.87;4413373;32;33880;-84
2023/04/07 03:06:23;;;;;;;2.37;2.17;;;;;;;4.63;64.61;99282.25;4417566;32;33557;-86
2023/04/07 03:08:52;;;;;;;1.60;1.50;;;;;;;4.52;65.32;99276.22;4408013;32;34647;-87
2023/04/07 03:11:22;;;;;;;1.52;1.42;;;;;;;4.67;64.92;99278.84;4413914;32;33608;-85
2023/04/07 03:13:51;;;;;;;6.12;2.75;;;;;;;4.88;64.29;99275.50;4412294;32;34617;-84
2023/04/07 03:16:20;;;;;;;2.00;1.90;;;;;;;4.94;64.24;99282.38;4408028;32;33356;-84
2023/04/07 03:18:52;;;;;;;1.65;1.55;;;;;;;4.77;64.64;99276.31;4417730;32;33986;-84
2023/04/07 03:21:22;;;;;;;2.20;1.80;;;;;;;4.22;66.58;99279.47;4412708;32;33501;-83
2023/04/07 03:23:51;;;;;;;2.45;2.25;;;;;;;4.58;65.89;99281.38;4412870;32;33426;-85
2023/04/07 03:26:25;;;;;;;1.83;1.73;;;;;;;4.92;64.63;99279.78;4412403;32;33313;-87
2023/04/07 03:28:55;;;;;;;1.83;1.73;;;;;;;4.87;64.73;99281.47;4417138;32;33780;-83
2023/04/07 03:31:23;;;;;;;1.85;1.75;;;;;;;4.65;65.35;99283.13;4413141;32;33530;-83
2023/04/07 03:33:52;;;;;;;2.83;2.45;;;;;;;4.75;65.17;99278.03;4412881;32;32939;-82
2023/04/07 03:36:23;;;;;;;2.05;1.85;;;;;;;4.66;65.52;99277.16;4397793;32;32809;-83
2023/04/07 03:38:52;;;;;;;1.83;1.73;;;;;;;4.60;66.10;99273.69;4414289;32;34720;-84
2023/04/07 03:41:21;;;;;;;1.60;1.50;;;;;;;4.72;65.20;99271.16;4416894;32;34266;-87
2023/04/07 03:43:51;;;;;;;3.67;2.58;;;;;;;4.53;66.17;99270.22;4407235;32;32904;-88
2023/04/07 03:46:20;;;;;;;2.17;1.98;;;;;;;5.00;64.40;99264.41;4415556;32;33394;-85
2023/04/07 03:48:50;;;;;;;1.70;1.60;;;;;;;5.01;64.41;99268.69;4413509;32;34424;-84
2023/04/07 03:51:21;;;;;;;2.75;2.58;;;;;;;4.83;65.09;99258.34;4412829;32;33558;-84
2023/04/07 03:53:51;;;;;;;1.70;1.60;;;;;;;4.49;66.41;99265.91;4414687;32;33991;-86
2023/04/07 03:56:23;;;;;;;2.60;2.40;;;;;;;4.80;65.57;99272.03;4414374;32;33013;-83
2023/04/07 03:58:54;;;;;;;1.60;1.50;;;;;;;4.99;64.53;99270.37;4415166;32;33412;-83
2023/04/07 04:01:24;;;;;;;2.12;1.67;;;;;;;5.24;63.92;99270.44;4413946;32;34145;-82
2023/04/07 04:03:53;;;;;;;2.15;1.95;;;;;;;4.90;64.84;99280.62;4416913;32;34029;-83
2023/04/07 04:06:23;;;;;;;2.70;2.50;;;;;;;5.32;63.84;99281.59;4414682;32;34310;-84
2023/04/07 04:08:52;;;;;;;1.85;1.75;;;;;;;5.27;63.58;99284.16;4413292;32;33263;-83
2023/04/07 04:11:23;;;;;;;2.87;2.60;;;;;;;5.44;63.36;99283.34;4407066;32;33549;-83
2023/04/07 04:13:53;;;;;;;;;;;;;;;5.22;63.58;99279.84;4420172;32;32923;-84
2023/04/07 04:16:24;;;;;;;4.53;2.53;;;;;;;5.21;64.03;99280.72;4414530;32;34591;-84
2023/04/07 04:18:53;;;;;;;2.27;2.07;;;;;;;5.09;63.75;99279.81;4414064;32;33654;-84
2023/04/07 04:21:22;;;;;;;1.50;1.40;;;;;;;4.99;64.34;99284.97;4406239;32;33052;-84
2023/04/07 04:23:51;;;;;;;3.15;1.70;;;;;;;5.33;63.13;99291.03;4416631;32;33069;-86
2023/04/07 04:26:24;;;;;;;2.35;1.85;;;;;;;5.34;62.77;99293.59;4421091;32;33666;-85
2023/04/07 04:28:54;;;;;;;;;;;;;;;5.19;63.34;99287.56;4414516;32;33781;-86
2023/04/07 04:31:25;;;;;;;1.77;1.67;;;;;;;5.14;62.98;99293.53;4414006;32;33481;-85
2023/04/07 04:33:54;;;;;;;1.83;1.40;;;;;;;5.19;63.36;99297.84;4412231;32;33464;-85
2023/04/07 04:36:25;;;;;;;2.12;1.98;;;;;;;4.92;64.60;99305.47;4418939;32;34286;-83
2023/04/07 04:38:56;;;;;;;1.90;1.80;;;;;;;5.07;64.35;99296.09;4414084;32;34081;-83
2023/04/07 04:41:25;;;;;;;11.10;1.92;;;;;;;5.73;62.12;99303.94;4404581;32;33742;-87
2023/04/07 04:43:53;;;;;;;3.22;2.92;;;;;;;5.85;60.65;99305.66;4403713;32;33160;-83
2023/04/07 04:46:22;;;;;;;1.55;1.45;;;;;;;5.84;60.96;99309.06;4411290;32;31818;-86
2023/04/07 04:48:53;;;;;;;2.30;1.77;;;;;;;5.64;61.47;99302.22;4414811;32;33450;-83
2023/04/07 04:51:21;;;;;;;2.28;2.05;;;;;;;5.88;60.63;99305.66;4414439;32;33844;-84
2023/04/07 04:53:51;;;;;;;2.15;1.98;;;;;;;5.86;60.64;99313.34;4412825;32;32760;-84
2023/04/07 04:56:22;;;;;;;2.10;1.95;;;;;;;5.74;61.48;99310.78;4413400;32;32945;-83
2023/04/07 04:58:51;;;;;;;2.10;1.95;;;;;;;6.19;59.95;99306.50;4418730;32;34402;-85
2023/04/07 05:01:20;;;;;;;1.62;1.52;;;;;;;6.09;60.19;99321.13;4413939;32;34498;-84
2023/04/07 05:03:54;;;;;;;1.98;1.75;;;;;;;5.95;59.94;99308.25;4414004;32;32102;-83
2023/04/07 05:06:23;;;;;;;2.87;2.67;;;;;;;5.83;60.31;99315.09;4404256;32;33689;-87
2023/04/07 05:08:53;;;;;;;1.77;1.67;;;;;;;5.59;61.14;99318.50;4409596;32;33638;-83
2023/04/07 05:11:22;;;;;;;3.30;2.45;;;;;;;5.53;61.29;99319.34;4418527;32;33854;-85
2023/04/07 05:13:51;;;;;;;1.90;1.80;;;;;;;5.16;62.68;99329.56;4399656;32;33353;-83
2023/04/07 05:16:21;;;;;;;3.12;2.30;;;;;;;5.59;62.01;99333.94;4408959;32;34387;-83
2023/04/07 05:18:50;;;;;;;2.25;2.05;;;;;;;5.63;61.34;99320.22;4414125;32;33796;-83
2023/04/07 05:21:20;;;;;;;2.05;1.95;;;;;;;5.35;61.93;99312.47;4419342;32;34364;-85
2023/04/07 05:23:49;;;;;;;2.35;1.80;;;;;;;5.19;62.88;99308.13;4413682;32;33285;-82
2023/04/07 05:26:21;;;;;;;1.50;1.40;;;;;;;5.62;61.62;99315.94;4413101;32;34555;-87
2023/04/07 05:28:50;;;;;;;2.15;2.05;;;;;;;5.47;61.92;99334.78;4413247;32;34492;-84
2023/04/07 05:31:19;;;;;;;5.85;2.22;;;;;;;5.17;62.42;99340.69;4417151;32;34798;-87
2023/04/07 05:33:49;;;;;;;2.35;2.15;;;;;;;5.52;62.01;99346.78;4419113;32;33526;-86
2023/04/07 05:36:20;;;;;;;1.98;1.58;;;;;;;5.32;62.15;99341.62;4412950;32;33098;-83
2023/04/07 05:38:52;;;;;;;3.08;1.92;;;;;;;5.16;62.86;99339.00;4415207;32;33287;-85
2023/04/07 05:41:21;;;;;;;2.70;2.22;;;;;;;4.89;64.23;99332.91;4405168;32;33610;-85
2023/04/07 05:43:50;;;;;;;1.62;1.52;;;;;;;4.90;64.51;99337.19;4411450;32;32994;-86
2023/04/07 05:46:19;;;;;;;2.00;1.85;;;;;;;5.18;63.28;99337.28;4412801;32;33849;-83
2023/04/07 05:48:52;;;;;;;2.50;2.12;;;;;;;5.04;63.65;99335.53;4404758;32;33895;-83
2023/04/07 05:51:22;;;;;;;2.10;2.00;;;;;;;5.09;63.86;99340.69;4408319;32;33654;-82
2023/04/07 05:53:51;;;;;;;2.22;2.03;;;;;;;4.84;64.53;99340.59;4416797;32;33562;-83
2023/04/07 05:56:22;;;;;;;1.77;1.50;;;;;;;4.89;64.57;99343.19;4418533;32;32555;-84
2023/04/07 05:58:52;;;;;;;1.90;1.70;;;;;;;4.87;64.93;99343.16;4414370;32;33932;-84
2023/04/07 06:01:21;;;;;;;1.20;1.20;;;;;;;5.27;63.36;99342.47;4412436;32;32889;-87
2023/04/07 06:03:50;;;;;;;2.55;2.25;;;;;;;5.01;64.10;99340.66;4413524;32;33090;-88
2023/04/07 06:06:19;;;;;;;2.65;2.45;;;;;;;5.35;63.19;99340.75;4416566;32;34466;-86
2023/04/07 06:08:49;;;;;;;1.73;1.62;;;;;;;5.21;63.59;99337.28;4410003;32;34646;-86
2023/04/07 06:11:18;;;;;;;2.50;2.00;;;;;;;5.27;63.63;99339.91;4416771;32;32946;-83
2023/04/07 06:13:47;;;;;;;2.20;2.05;;;;;;;5.43;62.64;99341.62;4413776;32;33105;-86
2023/04/07 06:16:16;;;;;;;2.45;1.70;;;;;;;5.31;63.32;99341.59;4417476;32;34425;-84
2023/04/07 06:18:47;;;;;;;1.95;1.85;;;;;;;5.40;62.72;99336.47;4414777;32;33770;-86
2023/04/07 06:21:16;;;;;;;2.17;2.03;;;;;;;5.53;62.71;99330.50;4410981;32;33763;-86
2023/04/07 06:23:44;;;;;;;1.90;1.77;;;;;;;5.64;62.48;99333.09;4413930;32;32816;-84
2023/04/07 06:26:15;;;;;;;1.77;1.60;;;;;;;5.77;61.77;99332.25;4412681;32;33347;-84
2023/04/07 06:28:44;;;;;;;3.50;1.83;;;;;;;5.71;61.87;99329.66;4417763;32;33218;-84
2023/04/07 06:31:12;;;;;;;2.35;2.22;;;;;;;5.90;61.09;99338.25;4411383;32;33084;-85
2023/04/07 06:33:42;;;;;;;1.92;1.83;;;;;;;5.80;61.13;99339.13;4409041;32;175265;-84
2023/04/07 06:36:10;;;;;;;1.30;1.20;;;;;;;5.72;61.47;99338.22;4411064;32;32094;-85
2023/04/07 06:38:39;;;;;;;1.67;1.58;;;;;;;5.75;61.38;99340.81;4413284;32;34471;-84
2023/04/07 06:41:10;;;;;;;2.15;1.70;;;;;;;5.89;60.85;99346.81;4407182;32;33551;-83
2023/04/07 06:43:40;;;;;;;2.55;2.35;;;;;;;5.85;61.17;99347.69;4410150;32;33052;-86
2023/04/07 06:46:09;;;;;;;2.07;1.87;;;;;;;6.07;60.83;99352.87;4404499;32;33006;-83
2023/04/07 06:48:38;;;;;;;2.40;2.22;;;;;;;6.14;60.73;99357.16;4413420;32;33802;-85
2023/04/07 06:51:07;;;;;;;1.62;1.52;;;;;;;6.25;60.24;99352.00;4410642;32;34423;-87
2023/04/07 06:53:36;;;;;;;2.42;2.10;;;;;;;6.50;59.83;99350.22;4408592;32;33744;-84
2023/04/07 06:56:06;;;;;;;2.28;2.08;;;;;;;6.73;58.29;99352.75;4409045;32;33314;-86
2023/04/07 06:58:35;;;;;;;3.37;2.65;;;;;;;6.88;57.93;99355.28;4412176;32;34142;-84
2023/04/07 07:01:06;;;;;;;1.65;1.55;;;;;;;6.80;58.24;99368.19;4414723;32;33397;-84
2023/04/07 07:03:35;;;;;;;1.73;1.60;;;;;;;6.71;58.93;99365.62;4409664;32;33076;-84
2023/04/07 07:06:04;;;;;;;2.53;2.15;;;;;;;6.96;57.02;99365.56;4411400;32;34391;-87
2023/04/07 07:08:33;;;;;;;2.30;2.00;;;;;;;7.21;56.35;99372.34;4411422;32;34264;-86
2023/04/07 07:11:03;;;;;;;2.33;2.12;;;;;;;6.99;57.03;99371.56;4416053;32;34067;-86
2023/04/07 07:13:31;;;;;;;3.83;2.28;;;;;;;7.18;56.49;99376.66;4415118;32;33049;-85
2023/04/07 07:16:00;;;;;;;2.10;1.95;;;;;;;6.89;56.91;99385.38;4412573;32;33615;-85
2023/04/07 07:18:30;;;;;;;2.62;2.42;;;;;;;7.02;57.05;99383.59;4413520;32;34498;-88
2023/04/07 07:20:59;;;;;;;3.25;2.75;;;;;;;6.91;57.15;99381.06;4413532;32;35476;-90
2023/04/07 07:23:32;;;;;;;2.70;2.40;;;;;;;7.09;56.89;99380.12;4420090;32;33729;-87
2023/04/07 07:26:01;;;;;;;1.65;1.55;;;;;;;7.15;56.35;99385.28;4411684;32;34664;-87
2023/04/07 07:28:30;;;;;;;3.35;2.37;;;;;;;7.42;55.72;99397.19;4401862;32;34094;-91
2023/04/07 07:30:59;;;;;;;1.20;1.20;;;;;;;6.91;58.19;99398.25;4412249;32;33281;-85
2023/04/07 07:33:28;;;;;;;2.75;1.80;;;;;;;7.34;57.06;99403.25;4419987;32;33311;-83
2023/04/07 07:35:58;;;;;;;2.03;1.83;;;;;;;7.23;57.80;99409.31;4410927;32;35429;-85
2023/04/07 07:38:27;;;;;;;1.87;1.75;;;;;;;7.70;55.59;99405.59;4400613;32;33456;-88
2023/04/07 07:40:56;;;;;;;2.25;1.73;;;;;;;7.85;54.87;99409.84;4413733;32;33777;-86
2023/04/07 07:43:25;;;;;;;1.60;1.50;;;;;;;7.20;58.29;99411.03;4415920;32;31783;-88
2023/04/07 07:45:53;;;;;;;3.03;2.65;;;;;;;7.29;58.54;99415.31;4418811;32;34214;-85
2023/04/07 07:48:22;;;;;;;3.17;2.10;;;;;;;7.50;58.72;99412.63;4415717;32;34028;-85
2023/04/07 07:50:51;;;;;;;1.75;1.55;;;;;;;7.37;61.37;99417.00;4415846;32;34231;-87
2023/04/07 07:53:21;;;;;;;1.90;1.62;;;;;;;7.41;61.67;99420.41;4415891;32;33237;-86
2023/04/07 07:55:51;;;;;;;2.17;1.83;;;;;;;7.05;63.42;99414.53;4421192;32;33127;-88
2023/04/07 07:58:19;;;;;;;1.50;1.40;;;;;;;7.00;63.57;99414.53;4401680;32;33431;-88
2023/04/07 08:00:48;;;;;;;1.33;1.25;;;;;;;7.45;62.36;99420.38;4417554;32;34661;-86
2023/04/07 08:03:18;;;;;;;3.42;1.65;;;;;;;7.47;62.81;99428.13;4415652;32;34374;-86
2023/04/07 08:05:49;;;;;;;1.33;1.20;;;;;;;7.33;62.91;99438.50;4415267;32;33715;-87
2023/04/07 08:08:22;;;;;;;3.50;2.00;;;;;;;7.32;62.62;99443.66;4414167;32;34414;-84
2023/04/07 08:10:51;;;;;;;1.62;1.52;;;;;;;7.51;62.52;99442.72;4415000;32;34873;-86
2023/04/07 08:13:20;;;;;;;1.48;1.37;;;;;;;7.63;62.59;99444.37;4402116;32;32860;-86
2023/04/07 08:15:48;;;;;;;1.58;1.48;;;;;;;7.88;61.92;99451.16;4402098;32;34186;-85
2023/04/07 08:18:17;;;;;;;3.35;2.55;;;;;;;8.07;60.82;99441.56;4405783;32;33755;-87
2023/04/07 08:20:46;;;;;;;1.75;1.65;;;;;;;8.08;60.32;99443.25;4411328;32;34352;-84
2023/04/07 08:23:15;;;;;;;1.85;1.70;;;;;;;8.06;59.96;99442.41;4414276;32;35440;-86
2023/04/07 08:25:45;;;;;;;1.50;1.40;;;;;;;8.18;59.61;99450.94;4412090;32;33483;-88
2023/04/07 08:28:14;;;;;;;2.42;1.90;;;;;;;8.00;60.22;99445.03;4418381;32;33005;-84
2023/04/07 08:30:43;;;;;;;1.12;1.10;;;;;;;7.55;61.60;99454.75;4419733;32;33856;-85
2023/04/07 08:33:12;;;;;;;2.80;1.95;;;;;;;7.91;60.61;99455.44;4414632;32;32583;-86
2023/04/07 08:35:41;;;;;;;5.57;2.22;;;;;;;8.18;58.76;99449.22;4395850;32;33061;-88
2023/04/07 08:38:09;;;;;;;3.17;1.65;;;;;;;8.07;59.59;99454.47;4406444;32;34356;-85
2023/04/07 08:40:38;;;;;;;1.30;1.20;;;;;;;8.35;58.54;99456.84;4419644;32;33743;-86
2023/04/07 08:43:10;;;;;;;2.37;1.67;;;;;;;8.38;58.87;99451.63;4409256;32;33206;-88
2023/04/07 08:45:40;;;;;;;1.58;1.48;;;;;;;8.51;58.96;99453.28;4413337;32;33342;-86
2023/04/07 08:48:15;;;;;;;2.65;2.22;;;;;;;8.31;59.66;99470.66;4413527;32;33589;-85
2023/04/07 08:50:45;;;;;;;2.15;1.95;;;;;;;8.73;57.72;99468.63;4414694;32;33597;-86
2023/04/07 08:53:23;;;;;;;2.10;1.90;;;;;;;8.68;56.77;99462.63;4418754;32;33396;-84
2023/04/07 08:55:52;;;;;;;1.37;1.17;;;;;;;8.54;57.19;99462.75;4411460;32;33524;-87
2023/04/07 08:58:25;;;;;;;3.80;2.70;;;;;;;8.57;57.97;99467.87;4411038;32;33542;-88
2023/04/07 09:00:54;;;;;;;1.83;1.52;;;;;;;8.71;58.00;99467.78;4400903;32;32896;-84
2023/04/07 09:03:23;;;;;;;1.50;1.40;;;;;;;8.41;57.94;99459.41;4413868;32;32955;-88
2023/04/07 09:05:52;;;;;;;4.28;2.42;;;;;;;8.49;58.35;99462.78;4411369;32;33473;-85
2023/04/07 09:08:21;;;;;;;2.03;1.58;;;;;;;8.66;58.17;99464.38;4408288;32;34059;-86
2023/04/07 09:10:50;;;;;;;1.95;1.80;;;;;;;8.90;57.74;99463.28;4406877;32;33451;-85
2023/04/07 09:13:18;;;;;;;2.20;1.58;;;;;;;8.76;57.71;99460.81;4411021;32;32741;-84
2023/04/07 09:15:48;;;;;;;3.90;2.12;;;;;;;8.87;58.02;99461.59;4417003;32;33514;-88
2023/04/07 09:18:17;;;;;;;1.67;1.55;;;;;;;8.86;58.63;99459.00;4412149;32;34608;-87
2023/04/07 09:20:57;;;;;;;2.85;2.17;;;;;;;9.04;58.69;99463.16;4415109;32;34053;-86
2023/04/07 09:23:30;;;;;;;2.40;1.52;;;;;;;8.98;58.40;99456.28;4411883;32;33732;-86
2023/04/07 09:26:01;;;;;;;2.30;2.05;;;;;;;9.18;56.17;99456.94;4418658;32;33308;-85
2023/04/07 09:28:41;;;;;;;;;;;;;;;9.13;56.36;99456.16;4414900;32;34596;-85
2023/04/07 09:31:10;;;;;;;1.58;1.48;;;;;;;9.25;55.47;99455.13;4412000;32;33914;-86
2023/04/07 09:33:39;;;;;;;2.20;2.00;;;;;;;9.23;55.30;99458.59;4410972;32;32675;-84
2023/04/07 09:36:09;;;;;;;3.10;1.83;;;;;;;8.80;56.19;99459.94;4412670;32;34221;-88
2023/04/07 09:38:39;;;;;;;2.47;2.28;;;;;;;8.80;56.76;99459.94;4413143;32;34689;-85
2023/04/07 09:41:10;;;;;;;1.60;1.50;;;;;;;8.59;58.06;99470.47;4407336;32;34479;-85
2023/04/07 09:43:40;;;;;;;2.97;1.95;;;;;;;8.58;57.32;99471.31;4405419;32;33611;-86
2023/04/07 09:46:12;;;;;;;1.23;1.17;;;;;;;8.72;58.47;99470.34;4410494;32;32931;-85
2023/04/07 09:48:42;;;;;;;1.65;1.55;;;;;;;8.95;58.84;99469.25;4402698;32;34509;-85
2023/04/07 09:51:12;;;;;;;1.70;1.35;;;;;;;8.92;58.62;99474.47;4413686;32;33220;-88
2023/04/07 09:53:43;;;;;;;1.70;1.60;;;;;;;8.78;57.25;99466.00;4412038;32;33367;-84
2023/04/07 09:56:12;;;;;;;2.22;1.73;;;;;;;9.03;57.71;99469.19;4410268;32;33774;-85
2023/04/07 09:58:41;;;;;;;1.75;1.58;;;;;;;9.25;56.85;99465.47;4414455;32;33497;-86
2023/04/07 10:01:11;;;;;;;1.70;1.45;;;;;;;9.13;54.28;99463.91;4416155;32;33884;-88
2023/04/07 10:03:40;;;;;;;2.85;1.85;;;;;;;8.96;55.61;99460.63;4409753;32;33600;-86
2023/04/07 10:06:10;;;;;;;3.35;1.60;;;;;;;8.32;58.51;99462.03;4408915;32;34193;-85
2023/04/07 10:08:41;;;;;;;2.50;2.08;;;;;;;8.79;56.36;99463.38;4403384;32;34348;-87
2023/04/07 10:11:11;;;;;;;3.40;1.90;;;;;;;8.70;57.51;99460.91;4411244;32;34421;-87
2023/04/07 10:13:40;;;;;;;5.57;2.33;;;;;;;8.97;57.01;99463.19;4414730;32;33270;-86
2023/04/07 10:16:09;;;;;;;2.75;2.15;;;;;;;9.00;57.06;99462.31;4408133;32;33958;-85
2023/04/07 10:18:39;;;;;;;2.12;1.85;;;;;;;9.06;55.61;99462.25;4409851;32;34509;-87
2023/04/07 10:21:09;;;;;;;2.23;1.33;;;;;;;8.80;57.39;99462.53;4412074;32;33920;-88
2023/04/07 10:23:49;;;;;;;2.37;1.45;;;;;;;8.95;57.07;99459.75;4415381;32;33754;-88
2023/04/07 10:26:20;;;;;;;4.35;1.85;;;;;;;8.69;56.33;99470.34;4411695;32;33772;-87
2023/04/07 10:28:51;;;;;;;2.42;2.05;;;;;;;9.00;55.15;99469.22;4409135;32;33452;-84
2023/04/07 10:31:20;;;;;;;1.60;1.40;;;;;;;9.08;55.44;99469.97;4408680;32;33942;-85
2023/04/07 10:33:52;;;;;;;2.53;2.33;;;;;;;8.95;56.50;99470.13;4407961;32;34042;-84
2023/04/07 10:36:20;;;;;;;;;;;;;;;9.11;55.48;99469.94;4418504;32;33618;-86
2023/04/07 10:39:19;;;;;;;2.05;1.85;;;;;;;9.16;55.39;99466.44;4411061;32;33981;-84
2023/04/07 10:41:50;;;;;;;1.67;1.58;;;;;;;9.36;53.58;99463.62;4408910;32;33850;-86
2023/04/07 10:44:51;;;;;;;1.58;1.48;;;;;;;9.37;54.62;99464.47;4411267;32;34165;-87
2023/04/07 10:47:20;;;;;;;2.22;1.70;;;;;;;9.39;54.45;99473.09;4408409;32;34464;-86
2023/04/07 10:50:16;;;;;;;1.55;1.45;;;;;;;9.48;53.69;99478.16;4411223;32;34019;-86
2023/04/07 10:52:46;;;;;;;2.10;1.60;;;;;;;9.63;54.08;99473.66;4416948;32;34408;-86
2023/04/07 10:55:36;;;;;;;2.55;2.33;;;;;;;9.78;53.00;99469.13;4416091;32;34189;-86
2023/04/07 10:58:19;;;;;;;1.55;1.45;;;;;;;9.72;53.27;99463.19;4413441;32;33548;-85
2023/04/07 11:01:17;;;;;;;1.45;1.35;;;;;;;9.87;52.68;99469.91;4406605;32;33705;-85
2023/04/07 11:03:59;;;;;;;1.95;1.45;;;;;;;9.74;53.35;99474.41;4414871;32;33839;-85
2023/04/07 11:06:30;;;;;;;2.78;2.17;;;;;;;9.82;51.98;99469.97;4411890;32;33280;-86
2023/04/07 11:08:59;;;;;;;2.08;1.83;;;;;;;9.71;52.70;99466.66;4413325;32;33301;-85
2023/04/07 11:11:40;;;;;;;2.47;1.67;;;;;;;9.52;53.90;99469.50;4407954;32;34318;-88
2023/04/07 11:14:09;;;;;;;;;;;;;;;9.81;52.79;99471.69;4409254;32;33591;-88
2023/04/07 11:16:40;;;;;;;1.30;1.20;;;;;;;9.96;52.71;99472.38;4411060;32;33804;-86
2023/04/07 11:19:10;;;;;;;2.12;1.23;;;;;;;10.09;52.48;99473.03;4405940;32;33792;-86
2023/04/07 11:21:40;;;;;;;2.40;1.25;;;;;;;10.06;53.08;99473.94;4419279;32;34191;-86
2023/04/07 11:24:09;;;;;;;1.33;1.10;;;;;;;10.43;51.47;99469.06;4412221;32;32775;-86
2023/04/07 11:26:39;;;;;;;2.45;1.55;;;;;;;10.13;52.19;99467.78;4410968;32;33998;-88
2023/04/07 11:29:09;;;;;;;3.67;2.00;;;;;;;10.24;52.63;99471.09;4413238;32;33533;-87
2023/04/07 11:31:38;;;;;;;2.50;1.55;;;;;;;10.09;53.32;99473.88;4411896;32;34275;-86
2023/04/07 11:34:07;;;;;;;1.80;1.58;;;;;;;10.21;53.09;99463.34;4410801;32;31956;-86
2023/04/07 11:36:42;;;;;;;2.45;1.77;;;;;;;9.93;52.90;99464.62;4408109;32;32706;-86
2023/04/07 11:39:22;;;;;;;2.72;1.75;;;;;;;9.57;52.98;99470.28;4406488;32;33439;-86
2023/04/07 11:41:53;;;;;;;2.55;1.85;;;;;;;9.02;54.40;99480.41;4412141;32;34192;-85
2023/04/07 11:44:25;;;;;;;2.90;1.50;;;;;;;9.66;53.35;99476.22;4408389;32;33952;-85
2023/04/07 11:46:54;;;;;;;;;;;;;;;9.61;52.95;99471.09;4415290;32;32852;-87
2023/04/07 11:49:23;;;;;;;1.50;1.35;;;;;;;9.96;52.76;99474.97;4411310;32;33555;-87
2023/04/07 11:52:00;;;;;;;2.15;1.50;;;;;;;10.12;52.24;99466.06;4408396;32;34615;-87
2023/04/07 11:54:40;;;;;;;1.30;1.20;;;;;;;10.09;52.04;99466.13;4408355;32;33708;-85
2023/04/07 11:57:11;;;;;;;1.98;1.40;;;;;;;10.27;50.86;99467.59;4411253;32;32554;-87
2023/04/07 11:59:41;;;;;;;3.55;2.28;;;;;;;10.23;52.67;99464.16;4417444;32;34373;-85